sensor_id;sensor_type;location;lat;lon;timestamp;temperature;humidity
34829;DHT22;21042;47.620;12.188;2023-02-26T00:01:01;-0.10;99.90
34829;DHT22;21042;47.620;12.188;2023-02-26T00:03:28;0.00;99.90
34829;DHT22;21042;47.620;12.188;2023-02-26T00:05:59;0.00;99.90
34829;DHT22;21042;47.620;12.188;2023-02-26T00:08:27;0.00;99.90
34829;DHT22;21042;47.620;12.188;2023-02-26T00:10:54;0.00;99.90
34829;DHT22;21042;47.620;12.188;2023-02-26T00:13:20;0.00;99.90
34829;DHT22;21042;47.620;12.188;2023-02-26T00:15:49;-0.10;99.90
34829;DHT22;21042;47.620;12.188;2023-02-26T00:18:17;-0.10;99.90
34829;DHT22;21042;47.620;12.188;2023-02-26T00:20:44;-0.20;99.90
34829;DHT22;21042;47.620;12.188;2023-02-26T00:23:12;-0.40;99.90
34829;DHT22;21042;47.620;12.188;2023-02-26T00:25:40;-0.40;99.90
34829;DHT22;21042;47.620;12.188;2023-02-26T00:28:08;-0.50;99.90
34829;DHT22;21042;47.620;12.188;2023-02-26T00:30:35;-0.70;99.90
34829;DHT22;21042;47.620;12.188;2023-02-26T00:33:03;-0.80;99.90
34829;DHT22;21042;47.620;12.188;2023-02-26T00:35:31;-0.90;99.90
34829;DHT22;21042;47.620;12.188;2023-02-26T00:38:03;-1.00;99.90
34829;DHT22;21042;47.620;12.188;2023-02-26T00:40:45;-1.00;99.90
34829;DHT22;21042;47.620;12.188;2023-02-26T00:43:21;-1.00;99.90
34829;DHT22;21042;47.620;12.188;2023-02-26T00:46:06;-1.10;99.90
34829;DHT22;21042;47.620;12.188;2023-02-26T00:51:22;-1.00;99.90
34829;DHT22;21042;47.620;12.188;2023-02-26T00:54:19;-1.00;99.90
34829;DHT22;21042;47.620;12.188;2023-02-26T00:56:51;-1.00;99.90
34829;DHT22;21042;47.620;12.188;2023-02-26T00:59:19;-1.00;99.90
34829;DHT22;21042;47.620;12.188;2023-02-26T01:01:46;-1.00;99.90
34829;DHT22;21042;47.620;12.188;2023-02-26T01:04:17;-1.00;99.90
34829;DHT22;21042;47.620;12.188;2023-02-26T01:06:50;-1.00;99.90
34829;DHT22;21042;47.620;12.188;2023-02-26T01:11:54;-1.00;99.90
34829;DHT22;21042;47.620;12.188;2023-02-26T01:14:22;-1.00;99.90
34829;DHT22;21042;47.620;12.188;2023-02-26T01:19:48;-1.00;99.90
34829;DHT22;21042;47.620;12.188;2023-02-26T01:24:48;-1.00;99.90
34829;DHT22;21042;47.620;12.188;2023-02-26T01:27:15;-1.00;99.90
34829;DHT22;21042;47.620;12.188;2023-02-26T01:29:42;-1.00;99.90
34829;DHT22;21042;47.620;12.188;2023-02-26T01:34:54;-1.00;99.90
34829;DHT22;21042;47.620;12.188;2023-02-26T01:37:40;-1.00;99.90
34829;DHT22;21042;47.620;12.188;2023-02-26T01:40:32;-1.00;99.90
34829;DHT22;21042;47.620;12.188;2023-02-26T01:43:09;-1.00;99.90
34829;DHT22;21042;47.620;12.188;2023-02-26T01:48:51;-1.00;99.90
34829;DHT22;21042;47.620;12.188;2023-02-26T01:51:40;-1.00;99.90
34829;DHT22;21042;47.620;12.188;2023-02-26T01:54:05;-1.00;99.90
34829;DHT22;21042;47.620;12.188;2023-02-26T01:56:32;-1.00;99.90
34829;DHT22;21042;47.620;12.188;2023-02-26T01:58:59;-1.00;99.90
34829;DHT22;21042;47.620;12.188;2023-02-26T02:01:38;-1.00;99.90
34829;DHT22;21042;47.620;12.188;2023-02-26T02:04:10;-1.00;99.90
34829;DHT22;21042;47.620;12.188;2023-02-26T02:06:38;-0.90;99.90
34829;DHT22;21042;47.620;12.188;2023-02-26T02:09:06;-0.90;99.90
34829;DHT22;21042;47.620;12.188;2023-02-26T02:11:34;-0.90;99.90
34829;DHT22;21042;47.620;12.188;2023-02-26T02:14:11;-1.00;99.90
34829;DHT22;21042;47.620;12.188;2023-02-26T02:17:44;-1.00;99.90
34829;DHT22;21042;47.620;12.188;2023-02-26T02:22:25;-1.10;99.90
34829;DHT22;21042;47.620;12.188;2023-02-26T02:28:03;-1.10;99.90
34829;DHT22;21042;47.620;12.188;2023-02-26T02:33:31;-1.10;99.90
34829;DHT22;21042;47.620;12.188;2023-02-26T02:36:09;-1.10;99.90
34829;DHT22;21042;47.620;12.188;2023-02-26T02:38:47;-1.10;99.90
34829;DHT22;21042;47.620;12.188;2023-02-26T02:41:19;-1.10;99.90
34829;DHT22;21042;47.620;12.188;2023-02-26T02:43:48;-1.20;99.90
34829;DHT22;21042;47.620;12.188;2023-02-26T02:46:23;-1.10;99.90
34829;DHT22;21042;47.620;12.188;2023-02-26T02:51:41;-1.10;99.90
34829;DHT22;21042;47.620;12.188;2023-02-26T02:54:13;-1.20;99.90
34829;DHT22;21042;47.620;12.188;2023-02-26T02:56:54;-1.20;99.90
34829;DHT22;21042;47.620;12.188;2023-02-26T02:59:41;-1.20;99.90
34829;DHT22;21042;47.620;12.188;2023-02-26T03:04:51;-1.10;99.90
34829;DHT22;21042;47.620;12.188;2023-02-26T03:07:18;-1.20;99.90
34829;DHT22;21042;47.620;12.188;2023-02-26T03:09:50;-1.10;99.90
34829;DHT22;21042;47.620;12.188;2023-02-26T03:12:17;-1.10;99.90
34829;DHT22;21042;47.620;12.188;2023-02-26T03:14:44;-1.10;99.90
34829;DHT22;21042;47.620;12.188;2023-02-26T03:20:31;-1.20;99.90
34829;DHT22;21042;47.620;12.188;2023-02-26T03:23:20;-1.20;99.90
34829;DHT22;21042;47.620;12.188;2023-02-26T03:25:55;-1.20;99.90
34829;DHT22;21042;47.620;12.188;2023-02-26T03:28:35;-1.20;99.90
34829;DHT22;21042;47.620;12.188;2023-02-26T03:31:16;-1.20;99.90
34829;DHT22;21042;47.620;12.188;2023-02-26T03:33:53;-1.20;99.90
34829;DHT22;21042;47.620;12.188;2023-02-26T03:39:56;-1.20;99.90
34829;DHT22;21042;47.620;12.188;2023-02-26T03:42:07;-1.20;99.90
34829;DHT22;21042;47.620;12.188;2023-02-26T03:44:56;-1.20;99.90
34829;DHT22;21042;47.620;12.188;2023-02-26T03:47:26;-1.20;99.90
34829;DHT22;21042;47.620;12.188;2023-02-26T03:50:59;-1.20;99.90
34829;DHT22;21042;47.620;12.188;2023-02-26T03:53:26;-1.30;99.90
34829;DHT22;21042;47.620;12.188;2023-02-26T03:56:08;-1.30;99.90
34829;DHT22;21042;47.620;12.188;2023-02-26T03:58:56;-1.30;99.90
34829;DHT22;21042;47.620;12.188;2023-02-26T04:01:53;-1.30;99.90
34829;DHT22;21042;47.620;12.188;2023-02-26T04:04:33;-1.30;99.90
34829;DHT22;21042;47.620;12.188;2023-02-26T04:07:02;-1.30;99.90
34829;DHT22;21042;47.620;12.188;2023-02-26T04:09:29;-1.30;99.90
34829;DHT22;21042;47.620;12.188;2023-02-26T04:11:56;-1.30;99.90
34829;DHT22;21042;47.620;12.188;2023-02-26T04:14:23;-1.40;99.90
34829;DHT22;21042;47.620;12.188;2023-02-26T04:16:52;-1.40;99.90
34829;DHT22;21042;47.620;12.188;2023-02-26T04:19:19;-1.40;99.90
34829;DHT22;21042;47.620;12.188;2023-02-26T04:21:46;-1.40;99.90
34829;DHT22;21042;47.620;12.188;2023-02-26T04:24:14;-1.40;99.90
34829;DHT22;21042;47.620;12.188;2023-02-26T04:26:43;-1.50;99.90
34829;DHT22;21042;47.620;12.188;2023-02-26T04:29:10;-1.50;99.90
34829;DHT22;21042;47.620;12.188;2023-02-26T04:31:37;-1.60;99.90
34829;DHT22;21042;47.620;12.188;2023-02-26T04:34:04;-1.60;99.90
34829;DHT22;21042;47.620;12.188;2023-02-26T04:39:09;-1.70;99.90
34829;DHT22;21042;47.620;12.188;2023-02-26T04:41:37;-1.70;99.90
34829;DHT22;21042;47.620;12.188;2023-02-26T04:44:04;-1.80;99.90
34829;DHT22;21042;47.620;12.188;2023-02-26T04:46:32;-1.80;99.90
34829;DHT22;21042;47.620;12.188;2023-02-26T04:48:59;-1.80;99.90
34829;DHT22;21042;47.620;12.188;2023-02-26T04:51:26;-1.80;99.90
34829;DHT22;21042;47.620;12.188;2023-02-26T04:53:53;-1.80;99.90
34829;DHT22;21042;47.620;12.188;2023-02-26T04:56:20;-1.80;99.90
34829;DHT22;21042;47.620;12.188;2023-02-26T04:58:46;-1.80;99.90
34829;DHT22;21042;47.620;12.188;2023-02-26T05:01:18;-1.80;99.90
34829;DHT22;21042;47.620;12.188;2023-02-26T05:03:46;-1.80;99.90
34829;DHT22;21042;47.620;12.188;2023-02-26T05:06:13;-1.90;99.90
34829;DHT22;21042;47.620;12.188;2023-02-26T05:08:40;-1.90;99.90
34829;DHT22;21042;47.620;12.188;2023-02-26T05:11:09;-1.90;99.90
34829;DHT22;21042;47.620;12.188;2023-02-26T05:13:36;-1.90;99.90
34829;DHT22;21042;47.620;12.188;2023-02-26T05:16:05;-1.90;99.90
34829;DHT22;21042;47.620;12.188;2023-02-26T05:18:32;-1.90;99.90
34829;DHT22;21042;47.620;12.188;2023-02-26T05:21:00;-2.00;99.90
34829;DHT22;21042;47.620;12.188;2023-02-26T05:23:26;-2.00;99.90
34829;DHT22;21042;47.620;12.188;2023-02-26T05:25:55;-2.00;99.90
34829;DHT22;21042;47.620;12.188;2023-02-26T05:28:24;-2.00;99.90
34829;DHT22;21042;47.620;12.188;2023-02-26T05:30:51;-2.10;99.90
34829;DHT22;21042;47.620;12.188;2023-02-26T05:33:19;-2.10;99.90
34829;DHT22;21042;47.620;12.188;2023-02-26T05:35:46;-2.10;99.90
34829;DHT22;21042;47.620;12.188;2023-02-26T05:38:13;-2.10;99.90
34829;DHT22;21042;47.620;12.188;2023-02-26T05:40:40;-2.10;99.90
34829;DHT22;21042;47.620;12.188;2023-02-26T05:43:07;-2.10;99.90
34829;DHT22;21042;47.620;12.188;2023-02-26T05:45:34;-2.10;99.90
34829;DHT22;21042;47.620;12.188;2023-02-26T05:48:01;-2.10;99.90
34829;DHT22;21042;47.620;12.188;2023-02-26T05:50:27;-2.10;99.90
34829;DHT22;21042;47.620;12.188;2023-02-26T05:52:56;-2.10;99.90
34829;DHT22;21042;47.620;12.188;2023-02-26T05:55:22;-2.10;99.90
34829;DHT22;21042;47.620;12.188;2023-02-26T05:57:49;-2.10;99.90
34829;DHT22;21042;47.620;12.188;2023-02-26T06:00:16;-2.10;99.90
34829;DHT22;21042;47.620;12.188;2023-02-26T06:02:43;-2.10;99.90
34829;DHT22;21042;47.620;12.188;2023-02-26T06:05:10;-2.10;99.90
34829;DHT22;21042;47.620;12.188;2023-02-26T06:07:37;-2.10;99.90
34829;DHT22;21042;47.620;12.188;2023-02-26T06:10:05;-2.10;99.90
34829;DHT22;21042;47.620;12.188;2023-02-26T06:12:34;-2.10;99.90
34829;DHT22;21042;47.620;12.188;2023-02-26T06:15:01;-2.10;99.90
34829;DHT22;21042;47.620;12.188;2023-02-26T06:17:28;-2.00;99.90
34829;DHT22;21042;47.620;12.188;2023-02-26T06:19:55;-2.00;99.90
34829;DHT22;21042;47.620;12.188;2023-02-26T06:22:22;-2.00;99.90
34829;DHT22;21042;47.620;12.188;2023-02-26T06:24:48;-2.00;99.90
34829;DHT22;21042;47.620;12.188;2023-02-26T06:27:15;-2.00;99.90
34829;DHT22;21042;47.620;12.188;2023-02-26T06:29:42;-2.00;99.90
34829;DHT22;21042;47.620;12.188;2023-02-26T06:32:09;-2.00;99.90
34829;DHT22;21042;47.620;12.188;2023-02-26T06:34:35;-2.10;99.90
34829;DHT22;21042;47.620;12.188;2023-02-26T06:37:02;-2.10;99.90
34829;DHT22;21042;47.620;12.188;2023-02-26T06:39:29;-2.10;99.90
34829;DHT22;21042;47.620;12.188;2023-02-26T06:41:56;-2.10;99.90
34829;DHT22;21042;47.620;12.188;2023-02-26T06:44:23;-2.10;99.90
34829;DHT22;21042;47.620;12.188;2023-02-26T06:46:50;-2.10;99.90
34829;DHT22;21042;47.620;12.188;2023-02-26T06:49:16;-2.10;99.90
34829;DHT22;21042;47.620;12.188;2023-02-26T06:51:43;-2.10;99.90
34829;DHT22;21042;47.620;12.188;2023-02-26T06:54:10;-2.20;99.90
34829;DHT22;21042;47.620;12.188;2023-02-26T06:56:37;-2.10;99.90
34829;DHT22;21042;47.620;12.188;2023-02-26T06:59:03;-2.10;99.90
34829;DHT22;21042;47.620;12.188;2023-02-26T07:01:30;-1.70;99.90
34829;DHT22;21042;47.620;12.188;2023-02-26T07:04:00;-2.10;99.90
34829;DHT22;21042;47.620;12.188;2023-02-26T07:06:27;-2.10;99.90
34829;DHT22;21042;47.620;12.188;2023-02-26T07:08:54;-2.10;99.90
34829;DHT22;21042;47.620;12.188;2023-02-26T07:11:21;-2.10;99.90
34829;DHT22;21042;47.620;12.188;2023-02-26T07:13:48;-2.00;99.90
34829;DHT22;21042;47.620;12.188;2023-02-26T07:16:17;-2.00;99.90
34829;DHT22;21042;47.620;12.188;2023-02-26T07:18:44;-2.00;99.90
34829;DHT22;21042;47.620;12.188;2023-02-26T07:21:10;-1.90;99.90
34829;DHT22;21042;47.620;12.188;2023-02-26T07:23:37;-1.90;99.90
34829;DHT22;21042;47.620;12.188;2023-02-26T07:26:04;-2.00;99.90
34829;DHT22;21042;47.620;12.188;2023-02-26T07:28:30;-1.90;99.90
34829;DHT22;21042;47.620;12.188;2023-02-26T07:30:57;-1.80;99.90
34829;DHT22;21042;47.620;12.188;2023-02-26T07:33:24;-1.70;99.90
34829;DHT22;21042;47.620;12.188;2023-02-26T07:35:52;-1.70;99.90
34829;DHT22;21042;47.620;12.188;2023-02-26T07:38:19;-1.60;99.90
34829;DHT22;21042;47.620;12.188;2023-02-26T07:40:46;-1.50;99.90
34829;DHT22;21042;47.620;12.188;2023-02-26T07:43:13;-1.60;99.90
34829;DHT22;21042;47.620;12.188;2023-02-26T07:45:39;-1.60;99.90
34829;DHT22;21042;47.620;12.188;2023-02-26T07:48:06;-1.50;99.90
34829;DHT22;21042;47.620;12.188;2023-02-26T07:50:33;-1.40;99.90
34829;DHT22;21042;47.620;12.188;2023-02-26T07:52:59;-1.30;99.90
34829;DHT22;21042;47.620;12.188;2023-02-26T07:55:26;-1.10;99.90
34829;DHT22;21042;47.620;12.188;2023-02-26T07:57:53;-1.00;99.90
34829;DHT22;21042;47.620;12.188;2023-02-26T08:00:20;-0.90;99.90
34829;DHT22;21042;47.620;12.188;2023-02-26T08:02:47;-0.80;99.90
34829;DHT22;21042;47.620;12.188;2023-02-26T08:05:14;-0.80;99.90
34829;DHT22;21042;47.620;12.188;2023-02-26T08:07:41;-0.90;99.90
34829;DHT22;21042;47.620;12.188;2023-02-26T08:10:08;-1.00;99.90
34829;DHT22;21042;47.620;12.188;2023-02-26T08:12:36;-1.10;99.90
34829;DHT22;21042;47.620;12.188;2023-02-26T08:15:03;-1.20;99.90
34829;DHT22;21042;47.620;12.188;2023-02-26T08:17:31;-1.20;99.90
34829;DHT22;21042;47.620;12.188;2023-02-26T08:19:57;-1.20;99.90
34829;DHT22;21042;47.620;12.188;2023-02-26T08:22:24;-1.20;99.90
34829;DHT22;21042;47.620;12.188;2023-02-26T08:24:51;-1.10;99.90
34829;DHT22;21042;47.620;12.188;2023-02-26T08:27:18;-1.10;99.90
34829;DHT22;21042;47.620;12.188;2023-02-26T08:29:45;-1.20;99.90
34829;DHT22;21042;47.620;12.188;2023-02-26T08:32:12;-1.10;99.90
34829;DHT22;21042;47.620;12.188;2023-02-26T08:34:41;-1.10;99.90
34829;DHT22;21042;47.620;12.188;2023-02-26T08:37:08;-1.00;99.90
34829;DHT22;21042;47.620;12.188;2023-02-26T08:39:37;-0.90;99.90
34829;DHT22;21042;47.620;12.188;2023-02-26T08:42:06;-0.90;99.90
34829;DHT22;21042;47.620;12.188;2023-02-26T08:44:33;-0.90;99.90
34829;DHT22;21042;47.620;12.188;2023-02-26T08:46:59;-1.10;99.90
34829;DHT22;21042;47.620;12.188;2023-02-26T08:49:26;-1.10;99.90
34829;DHT22;21042;47.620;12.188;2023-02-26T08:51:53;-1.10;99.90
34829;DHT22;21042;47.620;12.188;2023-02-26T08:54:20;-1.20;99.90
34829;DHT22;21042;47.620;12.188;2023-02-26T08:56:46;-1.20;99.90
34829;DHT22;21042;47.620;12.188;2023-02-26T08:59:13;-1.30;99.90
34829;DHT22;21042;47.620;12.188;2023-02-26T09:01:40;-1.30;99.90
34829;DHT22;21042;47.620;12.188;2023-02-26T09:04:07;-1.30;99.90
34829;DHT22;21042;47.620;12.188;2023-02-26T09:06:34;-1.30;99.90
34829;DHT22;21042;47.620;12.188;2023-02-26T09:09:00;-1.30;99.90
34829;DHT22;21042;47.620;12.188;2023-02-26T09:11:27;-1.20;99.90
34829;DHT22;21042;47.620;12.188;2023-02-26T09:13:56;-1.10;99.90
34829;DHT22;21042;47.620;12.188;2023-02-26T09:16:25;-1.10;99.90
34829;DHT22;21042;47.620;12.188;2023-02-26T09:18:55;-1.10;99.90
34829;DHT22;21042;47.620;12.188;2023-02-26T09:21:22;-1.10;99.90
34829;DHT22;21042;47.620;12.188;2023-02-26T09:23:49;-0.90;99.90
34829;DHT22;21042;47.620;12.188;2023-02-26T09:26:16;-0.90;99.90
34829;DHT22;21042;47.620;12.188;2023-02-26T09:28:42;-0.90;99.90
34829;DHT22;21042;47.620;12.188;2023-02-26T09:31:09;-0.90;99.90
34829;DHT22;21042;47.620;12.188;2023-02-26T09:33:36;-0.70;99.90
34829;DHT22;21042;47.620;12.188;2023-02-26T09:36:03;-0.50;99.90
34829;DHT22;21042;47.620;12.188;2023-02-26T09:38:30;-0.30;99.90
34829;DHT22;21042;47.620;12.188;2023-02-26T09:41:01;-0.30;99.90
34829;DHT22;21042;47.620;12.188;2023-02-26T09:57:48;0.00;99.90
34829;DHT22;21042;47.620;12.188;2023-02-26T10:00:27;-0.10;99.90
34829;DHT22;21042;47.620;12.188;2023-02-26T10:03:09;-0.30;99.90
34829;DHT22;21042;47.620;12.188;2023-02-26T10:06:09;-0.30;99.90
34829;DHT22;21042;47.620;12.188;2023-02-26T10:08:45;-0.30;99.90
34829;DHT22;21042;47.620;12.188;2023-02-26T10:11:29;-0.30;99.90
34829;DHT22;21042;47.620;12.188;2023-02-26T10:14:09;-0.40;99.90
34829;DHT22;21042;47.620;12.188;2023-02-26T10:16:41;-0.40;99.90
34829;DHT22;21042;47.620;12.188;2023-02-26T10:19:17;-0.20;99.90
34829;DHT22;21042;47.620;12.188;2023-02-26T10:21:52;-0.10;99.90
34829;DHT22;21042;47.620;12.188;2023-02-26T10:27:16;0.00;99.90
34829;DHT22;21042;47.620;12.188;2023-02-26T10:30:13;0.20;99.90
34829;DHT22;21042;47.620;12.188;2023-02-26T10:35:46;0.40;99.90
34829;DHT22;21042;47.620;12.188;2023-02-26T10:38:18;0.30;99.90
34829;DHT22;21042;47.620;12.188;2023-02-26T10:41:03;0.30;99.90
34829;DHT22;21042;47.620;12.188;2023-02-26T10:43:38;0.30;99.90
34829;DHT22;21042;47.620;12.188;2023-02-26T10:49:19;0.20;99.90
34829;DHT22;21042;47.620;12.188;2023-02-26T10:51:49;0.10;99.90
34829;DHT22;21042;47.620;12.188;2023-02-26T10:54:29;0.00;99.90
34829;DHT22;21042;47.620;12.188;2023-02-26T10:56:58;0.20;99.90
34829;DHT22;21042;47.620;12.188;2023-02-26T10:59:25;0.20;99.90
34829;DHT22;21042;47.620;12.188;2023-02-26T11:01:53;0.30;99.90
34829;DHT22;21042;47.620;12.188;2023-02-26T11:04:22;0.40;99.90
34829;DHT22;21042;47.620;12.188;2023-02-26T11:06:56;0.50;99.90
34829;DHT22;21042;47.620;12.188;2023-02-26T11:09:27;0.70;99.90
34829;DHT22;21042;47.620;12.188;2023-02-26T11:12:12;1.00;99.90
34829;DHT22;21042;47.620;12.188;2023-02-26T11:14:41;1.10;99.90
34829;DHT22;21042;47.620;12.188;2023-02-26T11:17:23;0.80;99.90
34829;DHT22;21042;47.620;12.188;2023-02-26T11:20:00;0.60;99.90
34829;DHT22;21042;47.620;12.188;2023-02-26T11:22:31;0.60;99.90
34829;DHT22;21042;47.620;12.188;2023-02-26T11:24:58;0.50;99.90
34829;DHT22;21042;47.620;12.188;2023-02-26T11:27:31;0.50;99.90
34829;DHT22;21042;47.620;12.188;2023-02-26T11:30:18;0.30;99.90
34829;DHT22;21042;47.620;12.188;2023-02-26T11:32:50;0.30;99.90
34829;DHT22;21042;47.620;12.188;2023-02-26T11:39:16;0.10;99.90
34829;DHT22;21042;47.620;12.188;2023-02-26T11:41:45;0.00;99.90
34829;DHT22;21042;47.620;12.188;2023-02-26T11:44:36;-0.10;99.90
34829;DHT22;21042;47.620;12.188;2023-02-26T11:47:04;0.10;99.90
34829;DHT22;21042;47.620;12.188;2023-02-26T11:49:32;0.20;99.90
34829;DHT22;21042;47.620;12.188;2023-02-26T11:52:26;0.30;99.90
34829;DHT22;21042;47.620;12.188;2023-02-26T11:54:59;0.50;99.90
34829;DHT22;21042;47.620;12.188;2023-02-26T11:57:28;0.50;99.90
34829;DHT22;21042;47.620;12.188;2023-02-26T11:59:58;0.50;99.90
34829;DHT22;21042;47.620;12.188;2023-02-26T12:02:30;0.40;99.90
34829;DHT22;21042;47.620;12.188;2023-02-26T12:05:02;0.30;99.90
34829;DHT22;21042;47.620;12.188;2023-02-26T12:07:31;0.20;99.90
34829;DHT22;21042;47.620;12.188;2023-02-26T12:09:58;0.20;99.90
34829;DHT22;21042;47.620;12.188;2023-02-26T12:15:31;0.20;99.90
34829;DHT22;21042;47.620;12.188;2023-02-26T12:18:41;0.20;99.90
34829;DHT22;21042;47.620;12.188;2023-02-26T12:21:23;0.20;99.90
34829;DHT22;21042;47.620;12.188;2023-02-26T12:24:06;0.20;99.90
34829;DHT22;21042;47.620;12.188;2023-02-26T12:26:54;0.20;99.90
34829;DHT22;21042;47.620;12.188;2023-02-26T12:32:23;0.40;99.90
34829;DHT22;21042;47.620;12.188;2023-02-26T12:35:20;0.50;99.90
34829;DHT22;21042;47.620;12.188;2023-02-26T12:38:04;0.80;99.90
34829;DHT22;21042;47.620;12.188;2023-02-26T12:43:55;0.70;99.90
34829;DHT22;21042;47.620;12.188;2023-02-26T12:46:44;0.50;99.90
34829;DHT22;21042;47.620;12.188;2023-02-26T12:52:20;0.80;99.90
34829;DHT22;21042;47.620;12.188;2023-02-26T13:06:01;2.20;99.90
34829;DHT22;21042;47.620;12.188;2023-02-26T13:08:33;2.20;99.90
34829;DHT22;21042;47.620;12.188;2023-02-26T13:14:28;1.40;99.90
34829;DHT22;21042;47.620;12.188;2023-02-26T13:19:48;0.70;99.90
34829;DHT22;21042;47.620;12.188;2023-02-26T13:22:27;0.50;99.90
34829;DHT22;21042;47.620;12.188;2023-02-26T13:25:18;0.40;99.90
34829;DHT22;21042;47.620;12.188;2023-02-26T13:27:48;0.50;99.90
34829;DHT22;21042;47.620;12.188;2023-02-26T13:30:27;0.60;99.90
34829;DHT22;21042;47.620;12.188;2023-02-26T13:32:57;0.90;99.90
34829;DHT22;21042;47.620;12.188;2023-02-26T13:38:00;1.50;99.90
34829;DHT22;21042;47.620;12.188;2023-02-26T13:40:39;1.60;99.90
34829;DHT22;21042;47.620;12.188;2023-02-26T13:43:33;1.70;99.90
34829;DHT22;21042;47.620;12.188;2023-02-26T13:49:20;1.60;99.90
34829;DHT22;21042;47.620;12.188;2023-02-26T13:51:51;1.60;99.90
34829;DHT22;21042;47.620;12.188;2023-02-26T14:00:30;1.30;99.90
34829;DHT22;21042;47.620;12.188;2023-02-26T14:11:44;0.80;99.90
34829;DHT22;21042;47.620;12.188;2023-02-26T14:17:38;1.20;99.90
34829;DHT22;21042;47.620;12.188;2023-02-26T14:26:11;1.40;99.90
34829;DHT22;21042;47.620;12.188;2023-02-26T14:28:33;1.50;99.90
34829;DHT22;21042;47.620;12.188;2023-02-26T14:33:45;1.80;99.90
34829;DHT22;21042;47.620;12.188;2023-02-26T14:36:45;1.90;99.90
34829;DHT22;21042;47.620;12.188;2023-02-26T14:39:37;1.80;99.90
34829;DHT22;21042;47.620;12.188;2023-02-26T14:42:10;1.60;99.90
34829;DHT22;21042;47.620;12.188;2023-02-26T14:44:42;1.50;99.90
34829;DHT22;21042;47.620;12.188;2023-02-26T14:47:10;1.30;99.90
34829;DHT22;21042;47.620;12.188;2023-02-26T14:49:40;1.20;99.90
34829;DHT22;21042;47.620;12.188;2023-02-26T14:52:50;1.30;99.90
34829;DHT22;21042;47.620;12.188;2023-02-26T14:55:32;1.30;99.90
34829;DHT22;21042;47.620;12.188;2023-02-26T14:58:42;1.20;99.90
34829;DHT22;21042;47.620;12.188;2023-02-26T15:10:14;-0.10;99.90
34829;DHT22;21042;47.620;12.188;2023-02-26T15:13:03;-0.20;99.90
34829;DHT22;21042;47.620;12.188;2023-02-26T15:16:21;-0.30;99.90
34829;DHT22;21042;47.620;12.188;2023-02-26T15:19:28;-0.20;99.90
34829;DHT22;21042;47.620;12.188;2023-02-26T15:22:04;-0.10;99.90
34829;DHT22;21042;47.620;12.188;2023-02-26T15:24:33;-0.10;99.90
34829;DHT22;21042;47.620;12.188;2023-02-26T15:27:02;-0.10;99.90
34829;DHT22;21042;47.620;12.188;2023-02-26T15:29:34;-0.10;99.90
34829;DHT22;21042;47.620;12.188;2023-02-26T15:32:17;0.00;99.90
34829;DHT22;21042;47.620;12.188;2023-02-26T15:34:57;0.00;99.90
34829;DHT22;21042;47.620;12.188;2023-02-26T15:37:27;0.00;99.90
34829;DHT22;21042;47.620;12.188;2023-02-26T15:39:55;0.00;99.90
34829;DHT22;21042;47.620;12.188;2023-02-26T15:42:28;0.00;99.90
34829;DHT22;21042;47.620;12.188;2023-02-26T15:44:57;0.00;99.90
34829;DHT22;21042;47.620;12.188;2023-02-26T15:47:27;0.00;99.90
34829;DHT22;21042;47.620;12.188;2023-02-26T15:49:54;-0.10;99.90
34829;DHT22;21042;47.620;12.188;2023-02-26T15:52:23;-0.10;99.90
34829;DHT22;21042;47.620;12.188;2023-02-26T15:54:52;-0.10;99.90
34829;DHT22;21042;47.620;12.188;2023-02-26T15:57:21;-0.20;99.90
34829;DHT22;21042;47.620;12.188;2023-02-26T15:59:53;-0.20;99.90
34829;DHT22;21042;47.620;12.188;2023-02-26T16:02:25;-0.30;99.90
34829;DHT22;21042;47.620;12.188;2023-02-26T16:04:52;-0.30;99.90
34829;DHT22;21042;47.620;12.188;2023-02-26T16:07:25;-0.30;99.90
34829;DHT22;21042;47.620;12.188;2023-02-26T16:09:53;-0.20;99.90
34829;DHT22;21042;47.620;12.188;2023-02-26T16:12:44;-0.20;99.90
34829;DHT22;21042;47.620;12.188;2023-02-26T16:15:25;-0.20;99.90
34829;DHT22;21042;47.620;12.188;2023-02-26T16:17:54;-0.20;99.90
34829;DHT22;21042;47.620;12.188;2023-02-26T16:20:25;-0.20;99.90
34829;DHT22;21042;47.620;12.188;2023-02-26T16:22:56;-0.20;99.90
34829;DHT22;21042;47.620;12.188;2023-02-26T16:25:29;-0.20;99.90
34829;DHT22;21042;47.620;12.188;2023-02-26T16:28:00;-0.30;99.90
34829;DHT22;21042;47.620;12.188;2023-02-26T16:30:36;-0.30;99.90
34829;DHT22;21042;47.620;12.188;2023-02-26T16:33:08;-0.30;99.90
34829;DHT22;21042;47.620;12.188;2023-02-26T16:35:43;-0.30;99.90
34829;DHT22;21042;47.620;12.188;2023-02-26T16:38:19;-0.30;99.90
34829;DHT22;21042;47.620;12.188;2023-02-26T16:40:55;-0.30;99.90
34829;DHT22;21042;47.620;12.188;2023-02-26T16:45:53;-0.40;99.90
34829;DHT22;21042;47.620;12.188;2023-02-26T16:48:25;-0.30;99.90
34829;DHT22;21042;47.620;12.188;2023-02-26T16:51:06;-0.40;99.90
34829;DHT22;21042;47.620;12.188;2023-02-26T16:53:49;-0.40;99.90
34829;DHT22;21042;47.620;12.188;2023-02-26T16:56:19;-0.50;99.90
34829;DHT22;21042;47.620;12.188;2023-02-26T16:59:13;-0.50;99.90
34829;DHT22;21042;47.620;12.188;2023-02-26T17:04:26;-0.50;99.90
34829;DHT22;21042;47.620;12.188;2023-02-26T17:06:54;-0.50;99.90
34829;DHT22;21042;47.620;12.188;2023-02-26T17:09:34;-0.50;99.90
34829;DHT22;21042;47.620;12.188;2023-02-26T17:14:40;-0.50;99.90
34829;DHT22;21042;47.620;12.188;2023-02-26T17:17:08;-0.50;99.90
34829;DHT22;21042;47.620;12.188;2023-02-26T17:19:36;-0.60;99.90
34829;DHT22;21042;47.620;12.188;2023-02-26T17:22:03;-0.60;99.90
34829;DHT22;21042;47.620;12.188;2023-02-26T17:24:36;-0.60;99.90
34829;DHT22;21042;47.620;12.188;2023-02-26T17:27:10;-0.60;99.90
34829;DHT22;21042;47.620;12.188;2023-02-26T17:29:41;-0.60;99.90
34829;DHT22;21042;47.620;12.188;2023-02-26T17:32:23;-0.70;99.90
34829;DHT22;21042;47.620;12.188;2023-02-26T17:43:36;-0.70;99.90
34829;DHT22;21042;47.620;12.188;2023-02-26T17:46:03;-0.80;99.90
34829;DHT22;21042;47.620;12.188;2023-02-26T17:48:30;-0.70;99.90
34829;DHT22;21042;47.620;12.188;2023-02-26T17:50:57;-0.70;99.90
34829;DHT22;21042;47.620;12.188;2023-02-26T17:53:25;-0.60;99.90
34829;DHT22;21042;47.620;12.188;2023-02-26T17:55:59;-0.60;99.90
34829;DHT22;21042;47.620;12.188;2023-02-26T17:58:29;-0.70;99.90
34829;DHT22;21042;47.620;12.188;2023-02-26T18:00:56;-0.70;99.90
34829;DHT22;21042;47.620;12.188;2023-02-26T18:03:23;-0.70;99.90
34829;DHT22;21042;47.620;12.188;2023-02-26T18:05:51;-0.70;99.90
34829;DHT22;21042;47.620;12.188;2023-02-26T18:08:23;-0.70;99.90
34829;DHT22;21042;47.620;12.188;2023-02-26T18:10:51;-0.70;99.90
34829;DHT22;21042;47.620;12.188;2023-02-26T18:13:18;-0.70;99.90
34829;DHT22;21042;47.620;12.188;2023-02-26T18:15:45;-0.80;99.90
34829;DHT22;21042;47.620;12.188;2023-02-26T18:18:14;-0.80;99.90
34829;DHT22;21042;47.620;12.188;2023-02-26T18:20:49;-0.80;99.90
34829;DHT22;21042;47.620;12.188;2023-02-26T18:23:20;-0.80;99.90
34829;DHT22;21042;47.620;12.188;2023-02-26T18:25:50;-0.80;99.90